Daggett, CA

10:21 AM PST on February 28, 2015 (GMT -0800)
Barstow-Daggett | Change Station
CLOSE
Current Station
Airport
Location: Daggett-Barstow,
Elevation: 1926 ft
Nearby Weather Stations
Active Advisory: Wind Advisory

Elev 1926 ft 34.85 °N, 116.79 °W | Updated 31 minutes ago

Partly Cloudy
Partly Cloudy
58 °F
Feels Like 58 °F
N
26
Wind Variable Wind from WSW
Gusts 34 mph

Today
High -- | Low -- °F
--% Chance of Precip.
Yesterday
High -- | Low -- °F
Precip. -- in
6:18 AM 5:42 PM
Waxing Gibbous, 79% visible
Pressure 29.73 in
Visibility 10.0 miles
Clouds Few 4800 ft
Dew Point 33 °F
Humidity 39%
Rainfall 0.00 in
Snow Depth Not available.
UV 4 out of 12
Pollen 8.50 out of 12
Air Quality Not available.
Flu Activity Not available.
METAR KDAG 281750Z AUTO 24023G30KT 10SM FEW048 14/01 A2976 RMK AO2 PK WND 24030/1749 SLP065 T01440006 10144 20100 51015

More Conditions Fewer Conditions

Pressure 29.73 in
Visibility 10.0 miles
Clouds Few 4800 ft
Dew Point 33 °F
Humidity 39%
Rainfall 0.00 in
Snow Depth Not available.
UV 4 out of 12
Pollen 8.50 out of 12
Air Quality Not available.
Flu Activity Not available.
METAR KDAG 281750Z AUTO 24023G30KT 10SM FEW048 14/01 A2976 RMK AO2 PK WND 24030/1749 SLP065 T01440006 10144 20100 51015

More Conditions Fewer Conditions

10-Day Weather Forecast

Almanac

Astronomy

Feb. 28, 2015 Rise Set
Actual Time
Civil Twilight
Nautical Twilight
Astronomical Twilight
Moon
Length of Visible Light
Length of Day
Tomorrow will be .
, % of the Moon is Illuminated

Today's Extremes

State Highs State Lows

Community

WunderPhotos

Upload Photos

1,801,106 photos uploaded!

WunderBlogs® & News

Nearby

Air Quality

  Air Quality AQ Index Pollutant
Not available.

Snow Depth

Station Depth Elevation

Earthquake Activity

City Distance Mag. Time & Date
Minimum magnitude displayed is 2.5.

Coastal Water Temperatures

Place Temperature

Nearby Weather Stations

Wind Advisory
Statement as of 10:21 AM PST on February 28, 2015

... Wind Advisory remains in effect until 7 PM PST this evening...

A Wind Advisory remains in effect until 7 PM PST this evening.

* Winds: west at 20 to 30 mph with gusts of 40 to 50 mph.

* Timing: winds will increase and remain gusty into this afternoon
before decreasing this evening.

* Locations: Barstow... Daggett... Fort Irwin... Kramer Junction
and Trona.

* Impacts: strong Crosswinds will make for difficult driving
conditions on area roads including interstates 15 and 40 as
well as highways 58 and 395. Areas of blowing sand and dust
are possible resulting in reduced visibility. Any loose
objects outside will be blown away.

Precautionary/preparedness actions...

A Wind Advisory means that Crosswinds are expected to be strong
enough to make driving difficult... especially for high profile
vehicles. In addition... strong winds over desert areas could result
in briefly lowered visibilities to well under a mile at times in
blowing dust or blowing sand. Use extra caution.